Veterans Administration, Ohio
Current Conditions -  °F | °C
As of 4:53 AM on Sunday 26 Oct 2014 (Local Time) from KMGY Reporting Station
Clear Clear  
Wind Chill: 51°   Ceiling: Unl
Heat Index: 51°   Visibility: 10mi
Dew Point: 34°   Wind: 6mph
Humidity: 52%   Direction: 310°NW
Pressure: 29.95"   Gusts: NA
Location:  39.7511°N, 84.2493°W
Report Text: KMGY 260853Z AUTO 31005KT 10SM CLR 11/01 A2995 RMK AO2 SLP139 T01060011 51007
Loading
Personal Weather Stations






























Interactive Weather Map
Tropical Storm Tracking
New forecast layout! Learn more

10-Day Weather Forecast

Advertisements
Track Severe Weather on mobile